Time;durP1;ratioP1;P1;durP2;ratioP2;P2;SDS_P1;SDS_P2;PMS_P1;PMS_P2;Temp;Humidity;BMP_temperature;BMP_pressure;BME280_temperature;BME280_humidity;BME280_pressure;Samples;Min_cycle;Max_cycle;Signal;HPM_P1;HPM_P2
2021/03/15 00:01:09;;;;;;;8.45;3.10;;;5.90;99.90;;;;;;4984973;28;20408;-84
2021/03/15 00:03:36;;;;;;;8.23;3.58;;;5.90;99.90;;;;;;5004842;28;20083;-84
2021/03/15 00:06:03;;;;;;;12.20;4.28;;;5.90;99.90;;;;;;4980843;28;20058;-83
2021/03/15 00:08:28;;;;;;;7.57;3.42;;;5.90;99.90;;;;;;4974725;28;20041;-83
2021/03/15 00:10:56;;;;;;;8.20;3.80;;;5.90;99.90;;;;;;4984584;28;20033;-84
2021/03/15 00:13:22;;;;;;;10.00;5.88;;;5.90;99.90;;;;;;5003157;28;20038;-83
2021/03/15 00:15:50;;;;;;;12.77;5.47;;;5.90;99.90;;;;;;5005760;28;20136;-84
2021/03/15 00:18:16;;;;;;;13.57;6.00;;;5.90;99.90;;;;;;5004989;28;20038;-84
2021/03/15 00:20:43;;;;;;;11.98;5.85;;;5.90;99.90;;;;;;5005085;28;20034;-84
2021/03/15 00:23:08;;;;;;;11.32;4.53;;;5.90;99.90;;;;;;5002150;28;20370;-84
2021/03/15 00:25:35;;;;;;;15.48;5.65;;;5.90;99.90;;;;;;5004581;28;20045;-82
2021/03/15 00:28:01;;;;;;;10.27;4.10;;;5.80;99.90;;;;;;4987035;28;20842;-84
2021/03/15 00:30:27;;;;;;;11.93;5.00;;;5.80;99.90;;;;;;4971402;28;20041;-83
2021/03/15 00:32:53;;;;;;;13.27;4.47;;;5.80;99.90;;;;;;4986467;28;20050;-84
2021/03/15 00:35:19;;;;;;;8.95;4.47;;;5.80;99.90;;;;;;4984786;28;20502;-83
2021/03/15 00:37:45;;;;;;;12.00;4.88;;;5.80;99.90;;;;;;4987118;28;20088;-83
2021/03/15 00:40:14;;;;;;;11.70;4.40;;;5.80;99.90;;;;;;4986510;28;20755;-83
2021/03/15 00:42:42;;;;;;;12.98;5.60;;;5.80;99.90;;;;;;4987041;28;20038;-83
2021/03/15 00:45:08;;;;;;;12.02;4.45;;;5.80;99.90;;;;;;4983914;28;20089;-85
2021/03/15 00:47:34;;;;;;;7.20;3.88;;;5.70;99.90;;;;;;4986422;28;20113;-83
2021/03/15 00:50:00;;;;;;;8.40;3.63;;;5.80;99.90;;;;;;4986518;28;20030;-82
2021/03/15 00:52:26;;;;;;;8.35;4.57;;;5.80;99.90;;;;;;4986342;28;20459;-83
2021/03/15 00:54:52;;;;;;;8.10;4.55;;;5.80;99.90;;;;;;5003640;28;20033;-83
2021/03/15 00:57:18;;;;;;;6.85;4.05;;;5.80;99.90;;;;;;4983906;28;20034;-83
2021/03/15 00:59:44;;;;;;;8.13;3.78;;;5.80;99.90;;;;;;5004134;28;20038;-83
2021/03/15 01:02:11;;;;;;;8.48;3.55;;;5.70;99.90;;;;;;4986319;28;20072;-83
2021/03/15 01:04:36;;;;;;;8.85;4.50;;;5.80;99.90;;;;;;4986402;28;20042;-85
2021/03/15 01:07:03;;;;;;;7.93;3.63;;;5.80;99.90;;;;;;5001786;28;20062;-83
2021/03/15 01:09:28;;;;;;;6.85;3.70;;;5.80;99.90;;;;;;5002699;28;20030;-83
2021/03/15 01:11:55;;;;;;;9.20;4.05;;;5.80;99.90;;;;;;5003940;28;20058;-84
2021/03/15 01:14:20;;;;;;;7.22;4.07;;;5.80;99.90;;;;;;4986395;28;20080;-84
2021/03/15 01:16:46;;;;;;;7.22;4.00;;;5.70;99.90;;;;;;5003580;28;20045;-83
2021/03/15 01:19:12;;;;;;;7.05;4.20;;;5.80;99.90;;;;;;5000705;28;20073;-84
2021/03/15 01:21:37;;;;;;;9.00;4.47;;;5.70;99.90;;;;;;4960995;28;20657;-83
2021/03/15 01:24:03;;;;;;;6.47;3.83;;;5.80;99.90;;;;;;4973635;28;20125;-82
2021/03/15 01:26:29;;;;;;;8.38;3.70;;;5.80;99.90;;;;;;4973650;28;20129;-82
2021/03/15 01:28:54;;;;;;;6.45;3.50;;;5.80;99.90;;;;;;4974756;28;20076;-83
2021/03/15 01:31:20;;;;;;;5.97;3.70;;;5.80;99.90;;;;;;4975775;28;20041;-83
2021/03/15 01:33:45;;;;;;;6.30;4.10;;;5.80;99.90;;;;;;4973662;28;20048;-82
2021/03/15 01:36:11;;;;;;;6.53;2.92;;;5.80;99.90;;;;;;4973487;28;20053;-83
2021/03/15 01:38:37;;;;;;;7.38;3.65;;;5.80;99.90;;;;;;4973507;28;20052;-83
2021/03/15 01:41:03;;;;;;;6.00;4.00;;;5.80;99.90;;;;;;4983459;28;20065;-83
2021/03/15 01:43:29;;;;;;;8.13;4.13;;;5.80;99.90;;;;;;5003071;28;20038;-82
2021/03/15 01:45:54;;;;;;;6.90;3.63;;;5.80;99.90;;;;;;5003946;28;20079;-83
2021/03/15 01:48:20;;;;;;;5.60;3.17;;;5.80;99.90;;;;;;4986276;28;20404;-83
2021/03/15 01:50:49;;;;;;;8.13;3.90;;;5.80;99.90;;;;;;5003585;28;20042;-82
2021/03/15 01:53:16;;;;;;;7.38;4.10;;;5.80;99.90;;;;;;5000608;28;20066;-82
2021/03/15 01:55:41;;;;;;;6.80;3.60;;;5.80;99.90;;;;;;5003947;28;20026;-82
2021/03/15 01:58:07;;;;;;;6.72;3.55;;;5.90;99.90;;;;;;4986212;28;20045;-82
2021/03/15 02:00:33;;;;;;;8.35;4.38;;;5.80;99.90;;;;;;4985888;28;20038;-82
2021/03/15 02:03:04;;;;;;;7.57;4.82;;;5.80;99.90;;;;;;4984468;28;20519;-82
2021/03/15 02:05:31;;;;;;;7.40;4.03;;;5.80;99.90;;;;;;4985034;28;20042;-82
2021/03/15 02:07:57;;;;;;;7.25;3.95;;;5.80;99.90;;;;;;5003829;28;20065;-83
2021/03/15 02:10:23;;;;;;;6.00;3.55;;;5.80;99.90;;;;;;4985627;28;20061;-82
2021/03/15 02:13:13;;;;;;;6.57;4.10;;;5.80;99.90;;;;;;5003168;28;20056;-83
2021/03/15 02:16:03;;;;;;;5.90;3.58;;;5.80;99.90;;;;;;4978279;28;20038;-83
2021/03/15 02:18:56;;;;;;;6.13;3.90;;;5.80;99.90;;;;;;4973115;28;20758;-82
2021/03/15 02:22:02;;;;;;;8.00;3.33;;;5.80;99.90;;;;;;4981592;28;20045;-82
2021/03/15 02:25:02;;;;;;;6.53;3.55;;;5.80;99.90;;;;;;4985593;28;20034;-81
2021/03/15 02:27:56;;;;;;;6.32;3.50;;;5.80;99.90;;;;;;4968554;28;20037;-82
2021/03/15 02:30:42;;;;;;;9.50;3.85;;;5.80;99.90;;;;;;4976316;28;20053;-82
2021/03/15 02:33:34;;;;;;;6.53;3.90;;;5.80;99.90;;;;;;4979122;28;20085;-82
2021/03/15 02:36:02;;;;;;;8.40;4.25;;;5.80;99.90;;;;;;4961176;28;20077;-82
2021/03/15 02:38:35;;;;;;;6.38;4.10;;;5.70;99.90;;;;;;4976386;28;20065;-82
2021/03/15 02:41:03;;;;;;;8.18;4.38;;;5.70;99.90;;;;;;5004516;28;20045;-82
2021/03/15 02:43:34;;;;;;;6.00;4.00;;;5.70;99.90;;;;;;4988108;28;20575;-82
2021/03/15 02:46:03;;;;;;;7.50;4.10;;;5.70;99.90;;;;;;4983602;28;20045;-82
2021/03/15 02:48:32;;;;;;;8.38;3.75;;;5.70;99.90;;;;;;4988062;28;20096;-82
2021/03/15 02:51:00;;;;;;;6.05;3.83;;;5.70;99.90;;;;;;4979408;28;20099;-84
2021/03/15 02:53:26;;;;;;;6.00;3.70;;;5.70;99.90;;;;;;4992375;28;20038;-84
2021/03/15 02:56:15;;;;;;;7.00;3.20;;;5.70;99.90;;;;;;4986445;28;20026;-83
2021/03/15 02:58:42;;;;;;;4.18;2.78;;;5.80;99.90;;;;;;4998957;28;20130;-84
2021/03/15 03:01:08;;;;;;;4.38;2.70;;;5.70;99.90;;;;;;4986066;28;20065;-83
2021/03/15 03:03:36;;;;;;;5.05;2.78;;;5.80;99.90;;;;;;4988296;28;20414;-83
2021/03/15 03:06:04;;;;;;;6.10;3.30;;;5.80;99.90;;;;;;4986447;28;20050;-84
2021/03/15 03:08:34;;;;;;;6.35;2.50;;;5.70;99.90;;;;;;4990246;28;20688;-83
2021/03/15 03:11:00;;;;;;;4.65;2.92;;;5.70;99.90;;;;;;4985400;28;20396;-84
2021/03/15 03:13:27;;;;;;;5.50;2.90;;;5.70;99.90;;;;;;5004487;28;20037;-84
2021/03/15 03:15:56;;;;;;;4.82;2.58;;;5.80;99.90;;;;;;4985419;28;20519;-84
2021/03/15 03:18:23;;;;;;;5.60;3.00;;;5.70;99.90;;;;;;4985645;28;20034;-85
2021/03/15 03:20:56;;;;;;;4.18;2.70;;;5.80;99.90;;;;;;4985722;28;20077;-84
2021/03/15 03:23:24;;;;;;;;;;;5.80;99.90;;;;;;5003478;28;20041;-84
2021/03/15 03:25:54;;;;;;;4.63;2.80;;;5.70;99.90;;;;;;4987834;28;19993;-83
2021/03/15 03:28:22;;;;;;;4.57;2.60;;;5.70;99.90;;;;;;5001486;28;20050;-84
2021/03/15 03:30:49;;;;;;;5.28;3.33;;;5.70;99.90;;;;;;4983685;28;20034;-84
2021/03/15 03:33:16;;;;;;;5.55;3.13;;;5.80;99.90;;;;;;4991593;28;20038;-84
2021/03/15 03:35:42;;;;;;;5.85;3.38;;;5.70;99.90;;;;;;4980415;28;20030;-84
2021/03/15 03:38:08;;;;;;;4.75;3.00;;;5.70;99.90;;;;;;5013769;28;20057;-84
2021/03/15 03:40:34;;;;;;;5.78;3.08;;;5.70;99.90;;;;;;4981395;28;20080;-85
2021/03/15 03:42:59;;;;;;;6.28;3.35;;;5.70;99.90;;;;;;5009062;28;20118;-84
2021/03/15 03:45:25;;;;;;;7.95;4.18;;;5.70;99.90;;;;;;4980282;28;20080;-84
2021/03/15 03:47:51;;;;;;;6.38;4.10;;;5.70;99.90;;;;;;4987794;28;20035;-83
2021/03/15 03:50:21;;;;;;;6.28;3.45;;;5.70;99.90;;;;;;4988913;28;20526;-85
2021/03/15 03:53:07;;;;;;;6.32;3.45;;;5.70;99.90;;;;;;4980242;28;20133;-85
2021/03/15 03:55:47;;;;;;;6.15;4.30;;;5.70;99.90;;;;;;4969943;28;20025;-85
2021/03/15 03:58:17;;;;;;;8.88;4.40;;;5.70;99.90;;;;;;4984725;28;20035;-84
2021/03/15 04:00:44;;;;;;;8.80;4.57;;;5.70;99.90;;;;;;4992298;28;20577;-84
2021/03/15 04:03:17;;;;;;;9.70;4.68;;;5.70;99.90;;;;;;4979600;28;20026;-83
2021/03/15 04:05:50;;;;;;;11.65;6.53;;;5.70;99.90;;;;;;4988780;28;20038;-84
2021/03/15 04:08:24;;;;;;;14.40;7.45;;;5.70;99.90;;;;;;4988366;28;20399;-85
2021/03/15 04:10:51;;;;;;;9.75;6.18;;;5.70;99.90;;;;;;4997056;28;20034;-85
2021/03/15 04:13:24;;;;;;;10.60;5.93;;;5.70;99.90;;;;;;4991888;28;20045;-85
2021/03/15 04:15:50;;;;;;;9.93;6.05;;;5.70;99.90;;;;;;4984693;28;20026;-84
2021/03/15 04:18:21;;;;;;;12.70;6.97;;;5.70;99.90;;;;;;5001403;28;20084;-85
2021/03/15 04:20:50;;;;;;;12.30;6.22;;;5.70;99.90;;;;;;4992254;28;20555;-84
2021/03/15 04:23:24;;;;;;;11.40;5.63;;;5.70;99.90;;;;;;4979973;28;20064;-84
2021/03/15 04:25:51;;;;;;;14.07;6.47;;;5.70;99.90;;;;;;4987369;28;20053;-83
2021/03/15 04:28:18;;;;;;;11.45;6.30;;;5.70;99.90;;;;;;4988197;28;20057;-84
2021/03/15 04:30:44;;;;;;;13.27;6.90;;;5.80;99.90;;;;;;4980162;28;20402;-84
2021/03/15 04:33:10;;;;;;;12.23;7.30;;;5.80;99.90;;;;;;4979283;28;20458;-84
2021/03/15 04:35:38;;;;;;;14.18;7.25;;;5.80;99.90;;;;;;4988788;28;20050;-83
2021/03/15 04:38:08;;;;;;;17.83;8.40;;;5.70;99.90;;;;;;5003957;28;20046;-83
2021/03/15 04:40:36;;;;;;;14.98;6.60;;;5.70;99.90;;;;;;4981147;28;20038;-83
2021/03/15 04:43:03;;;;;;;11.00;6.72;;;5.70;99.90;;;;;;5009388;28;20080;-83
2021/03/15 04:45:34;;;;;;;15.30;7.13;;;5.70;99.90;;;;;;4998949;28;20026;-84
2021/03/15 04:48:03;;;;;;;14.32;7.47;;;5.70;99.90;;;;;;4985562;28;20391;-83
2021/03/15 04:50:28;;;;;;;13.82;7.25;;;5.70;99.90;;;;;;4989362;28;20041;-83
2021/03/15 04:52:56;;;;;;;14.70;6.63;;;5.70;99.90;;;;;;4978825;28;20050;-84
2021/03/15 04:55:25;;;;;;;14.20;6.50;;;5.70;99.90;;;;;;4990656;28;20026;-84
2021/03/15 04:57:52;;;;;;;13.52;6.60;;;5.70;99.90;;;;;;5001469;28;20034;-85
2021/03/15 05:00:19;;;;;;;17.05;6.57;;;5.70;99.90;;;;;;5012913;28;20026;-84
2021/03/15 05:02:47;;;;;;;12.23;6.68;;;5.70;99.90;;;;;;4996886;28;20543;-84
2021/03/15 05:05:14;;;;;;;11.95;6.05;;;5.60;99.90;;;;;;4980652;28;20491;-84
2021/03/15 05:07:42;;;;;;;16.25;6.82;;;5.60;99.90;;;;;;4988331;28;20057;-84
2021/03/15 05:10:09;;;;;;;9.60;5.65;;;5.50;99.90;;;;;;4986109;28;20096;-83
2021/03/15 05:12:36;;;;;;;10.57;5.53;;;5.50;99.90;;;;;;4998066;28;20049;-83
2021/03/15 05:15:06;;;;;;;9.05;4.82;;;5.50;99.90;;;;;;4991673;28;20033;-84
2021/03/15 05:17:36;;;;;;;10.52;5.40;;;5.50;99.90;;;;;;4999128;28;20100;-84
2021/03/15 05:20:04;;;;;;;9.55;4.68;;;5.50;99.90;;;;;;5002371;28;20027;-84
2021/03/15 05:22:32;;;;;;;10.88;5.05;;;5.50;99.90;;;;;;4989157;28;20040;-84
2021/03/15 05:25:00;;;;;;;9.30;5.10;;;5.40;99.90;;;;;;4978713;28;20032;-83
2021/03/15 05:27:27;;;;;;;8.70;4.72;;;5.50;99.90;;;;;;4989574;28;20030;-83
2021/03/15 05:29:53;;;;;;;7.35;4.60;;;5.50;99.90;;;;;;4975006;28;20026;-84
2021/03/15 05:32:23;;;;;;;10.25;4.40;;;5.50;99.90;;;;;;4987603;28;20140;-84
2021/03/15 05:34:52;;;;;;;9.10;5.18;;;5.50;99.90;;;;;;4995303;28;20132;-85
2021/03/15 05:37:18;;;;;;;13.95;5.53;;;5.50;99.90;;;;;;4976205;28;20031;-84
2021/03/15 05:39:43;;;;;;;9.98;5.13;;;5.50;99.90;;;;;;4995257;28;20550;-84
2021/03/15 05:42:21;;;;;;;10.98;4.80;;;5.50;99.90;;;;;;4973890;28;20100;-84
2021/03/15 05:44:59;;;;;;;10.68;4.75;;;5.50;99.90;;;;;;4995730;28;20582;-84
2021/03/15 05:47:49;;;;;;;10.05;4.65;;;5.40;99.90;;;;;;4963753;28;20042;-83
2021/03/15 05:50:47;;;;;;;10.40;5.28;;;5.40;99.90;;;;;;4993091;28;20049;-84
2021/03/15 05:53:21;;;;;;;10.57;5.18;;;5.40;99.90;;;;;;4987486;28;20415;-84
2021/03/15 05:56:05;;;;;;;8.65;4.97;;;5.40;99.90;;;;;;4987324;28;20042;-84
2021/03/15 05:58:34;;;;;;;10.93;5.65;;;5.40;99.90;;;;;;4995517;28;20053;-85
2021/03/15 06:01:05;;;;;;;12.95;5.07;;;5.30;99.90;;;;;;4995847;28;20150;-86
2021/03/15 06:03:43;;;;;;;11.57;4.78;;;5.30;99.90;;;;;;5003212;28;20096;-87
2021/03/15 06:06:20;;;;;;;9.25;4.50;;;5.20;99.90;;;;;;4989878;28;20539;-85
2021/03/15 06:08:51;;;;;;;10.90;5.30;;;5.10;99.90;;;;;;4978702;28;20458;-85
2021/03/15 06:11:20;;;;;;;11.55;4.75;;;5.10;99.90;;;;;;4979005;28;20026;-85
2021/03/15 06:13:46;;;;;;;8.05;4.53;;;5.10;99.90;;;;;;4986195;28;20034;-85
2021/03/15 06:16:14;;;;;;;10.90;4.50;;;5.10;99.90;;;;;;4986271;28;20046;-86
2021/03/15 06:18:40;;;;;;;10.38;4.55;;;5.20;99.90;;;;;;5000189;28;20096;-86
2021/03/15 06:21:10;;;;;;;9.23;4.72;;;5.20;99.90;;;;;;4998671;28;20561;-87
2021/03/15 06:23:37;;;;;;;6.75;4.20;;;5.30;99.90;;;;;;4980230;28;20480;-86
2021/03/15 06:26:03;;;;;;;7.90;3.90;;;5.30;99.90;;;;;;4985456;28;20084;-84
2021/03/15 06:28:29;;;;;;;8.00;4.40;;;5.40;99.90;;;;;;4977597;28;20096;-86
2021/03/15 06:30:55;;;;;;;9.40;4.80;;;5.40;99.90;;;;;;4993196;28;20484;-85
2021/03/15 06:33:21;;;;;;;10.95;4.57;;;5.50;99.90;;;;;;4996171;28;20469;-84
2021/03/15 06:35:57;;;;;;;10.35;5.20;;;5.40;99.90;;;;;;4999957;28;20617;-87
2021/03/15 06:38:24;;;;;;;7.50;4.70;;;5.50;99.90;;;;;;4991479;28;20046;-86
2021/03/15 06:40:50;;;;;;;10.93;5.65;;;5.50;99.90;;;;;;4983641;28;20040;-86
2021/03/15 06:43:20;;;;;;;8.52;5.07;;;5.50;99.90;;;;;;5011122;28;20050;-85
2021/03/15 06:45:48;;;;;;;12.73;5.95;;;5.60;99.90;;;;;;4986886;28;20069;-86
2021/03/15 06:48:14;;;;;;;14.23;6.57;;;5.60;99.90;;;;;;4982161;28;20104;-86
2021/03/15 06:50:40;;;;;;;12.32;5.45;;;5.70;99.90;;;;;;4983508;28;20034;-85
2021/03/15 06:53:06;;;;;;;12.98;5.72;;;5.70;99.90;;;;;;4980791;28;20056;-86
2021/03/15 06:55:34;;;;;;;12.38;5.18;;;5.80;99.90;;;;;;4984652;28;20088;-86
2021/03/15 06:58:01;;;;;;;10.68;5.72;;;5.80;99.90;;;;;;4980753;28;20535;-86
2021/03/15 07:00:29;;;;;;;9.60;5.13;;;5.90;99.90;;;;;;4981500;28;20049;-86
2021/03/15 07:03:05;;;;;;;12.27;5.80;;;5.90;99.90;;;;;;4982910;28;20029;-87
2021/03/15 07:05:31;;;;;;;11.13;5.28;;;6.00;99.90;;;;;;4976655;28;20500;-87
2021/03/15 07:07:59;;;;;;;12.23;5.47;;;6.00;99.90;;;;;;4965245;28;20049;-86
2021/03/15 07:10:27;;;;;;;10.93;4.85;;;6.00;99.90;;;;;;4958192;28;20477;-86
2021/03/15 07:13:19;;;;;;;11.13;5.57;;;6.00;99.90;;;;;;4957390;28;20069;-88
2021/03/15 07:15:47;;;;;;;16.23;6.20;;;6.00;99.90;;;;;;4975680;28;20117;-85
2021/03/15 07:18:18;;;;;;;13.90;5.60;;;6.00;99.90;;;;;;4975226;28;20043;-85
2021/03/15 07:20:46;;;;;;;11.27;5.28;;;6.00;99.90;;;;;;4958041;28;20038;-85
2021/03/15 07:23:12;;;;;;;13.75;5.00;;;6.10;99.90;;;;;;4974457;28;20022;-86
2021/03/15 07:25:38;;;;;;;15.45;5.10;;;6.10;99.90;;;;;;4957522;28;20037;-83
2021/03/15 07:28:04;;;;;;;15.23;5.72;;;6.20;99.90;;;;;;4956927;28;20125;-84
2021/03/15 07:30:33;;;;;;;17.25;5.40;;;6.20;99.90;;;;;;4975105;28;20058;-86
2021/03/15 07:33:12;;;;;;;13.02;5.18;;;6.20;99.90;;;;;;4957374;28;20074;-85
2021/03/15 07:35:39;;;;;;;13.82;4.57;;;6.30;99.90;;;;;;4957686;28;20042;-86
2021/03/15 07:38:05;;;;;;;17.13;5.32;;;6.20;99.90;;;;;;4957748;28;20031;-85
2021/03/15 07:40:47;;;;;;;14.07;5.25;;;6.30;99.90;;;;;;4957760;28;20125;-86
2021/03/15 07:43:25;;;;;;;15.32;4.53;;;6.30;99.90;;;;;;4974759;28;20031;-85
2021/03/15 07:45:51;;;;;;;12.85;4.93;;;6.30;99.90;;;;;;4957656;28;20031;-84
2021/03/15 07:48:16;;;;;;;14.70;3.90;;;6.20;99.90;;;;;;4958436;28;20037;-85
2021/03/15 07:51:03;;;;;;;16.05;4.15;;;6.20;99.90;;;;;;4958107;28;20118;-86
2021/03/15 07:53:46;;;;;;;12.45;3.97;;;6.20;99.90;;;;;;4948054;28;20050;-84
2021/03/15 07:56:19;;;;;;;16.92;3.88;;;6.30;99.90;;;;;;4973724;28;20038;-85
2021/03/15 07:58:46;;;;;;;15.52;4.28;;;6.30;99.90;;;;;;4955019;28;20046;-85
2021/03/15 08:01:12;;;;;;;16.58;3.90;;;6.40;99.90;;;;;;4953634;28;20031;-87
2021/03/15 08:03:41;;;;;;;15.02;3.75;;;6.40;99.90;;;;;;4954877;28;20445;-84
2021/03/15 08:06:09;;;;;;;14.70;3.50;;;6.60;99.90;;;;;;4954373;28;20054;-85
2021/03/15 08:08:35;;;;;;;14.05;3.50;;;6.80;99.90;;;;;;4956637;28;20042;-85
2021/03/15 08:11:03;;;;;;;13.52;3.67;;;7.00;99.90;;;;;;4958575;28;20031;-86
2021/03/15 08:13:35;;;;;;;13.30;3.35;;;7.00;99.90;;;;;;4962252;28;20046;-85
2021/03/15 08:16:02;;;;;;;10.45;2.67;;;7.00;99.90;;;;;;4962549;28;20054;-85
2021/03/15 08:18:31;;;;;;;16.75;3.65;;;7.10;99.90;;;;;;4964695;28;20029;-86
2021/03/15 08:21:12;;;;;;;9.75;2.10;;;7.00;99.90;;;;;;4964676;28;20088;-86
2021/03/15 08:23:46;;;;;;;14.88;2.42;;;6.80;99.90;;;;;;4960456;28;20034;-84
2021/03/15 08:26:15;;;;;;;;;;;6.70;99.90;;;;;;4956680;28;20037;-85
2021/03/15 08:28:43;;;;;;;13.02;2.00;;;6.70;99.90;;;;;;4953214;28;19965;-84
2021/03/15 08:31:17;;;;;;;9.00;1.73;;;6.80;99.90;;;;;;4952972;28;20042;-84
2021/03/15 08:33:45;;;;;;;11.98;1.92;;;6.80;99.90;;;;;;4953548;28;20039;-86
2021/03/15 08:36:11;;;;;;;15.23;1.92;;;6.80;99.90;;;;;;4958822;28;20035;-86
2021/03/15 08:38:37;;;;;;;13.38;1.80;;;6.80;99.90;;;;;;4955198;28;20034;-87
2021/03/15 08:41:07;;;;;;;11.82;1.77;;;6.90;99.90;;;;;;4954200;28;20818;-88
2021/03/15 08:43:47;;;;;;;10.30;1.75;;;7.10;99.90;;;;;;4954202;28;20412;-87
2021/03/15 08:46:19;;;;;;;8.18;1.73;;;7.30;99.90;;;;;;4953551;28;20031;-87
2021/03/15 08:48:44;;;;;;;17.63;2.83;;;7.40;99.90;;;;;;4953619;28;20042;-84
2021/03/15 08:51:15;;;;;;;8.25;1.40;;;7.30;99.90;;;;;;4953319;28;20031;-86
2021/03/15 08:53:40;;;;;;;10.75;1.92;;;7.30;99.90;;;;;;4953782;28;20045;-86
2021/03/15 08:56:21;;;;;;;8.40;1.52;;;7.30;99.90;;;;;;4953784;28;20023;-86
2021/03/15 08:58:51;;;;;;;7.50;1.63;;;7.30;99.90;;;;;;4952982;28;20124;-86
2021/03/15 09:01:19;;;;;;;9.35;1.85;;;7.30;99.90;;;;;;4951507;28;20099;-86
2021/03/15 09:03:53;;;;;;;8.55;1.42;;;7.30;99.90;;;;;;4954353;28;20064;-86
2021/03/15 09:06:36;;;;;;;10.40;2.80;;;7.50;99.90;;;;;;4964687;28;20051;-88
2021/03/15 09:09:04;;;;;;;11.93;1.83;;;7.60;99.90;;;;;;4990127;28;20034;-87
2021/03/15 09:11:54;;;;;;;10.10;1.58;;;7.70;99.90;;;;;;4983114;28;20057;-87
2021/03/15 09:14:20;;;;;;;7.82;1.77;;;7.70;99.90;;;;;;4976333;28;20035;-89
2021/03/15 09:16:54;;;;;;;11.25;2.22;;;7.60;99.90;;;;;;4981090;28;20044;-88
2021/03/15 09:19:20;;;;;;;;;;;7.60;99.90;;;;;;4977311;28;20665;-89
2021/03/15 09:21:53;;;;;;;9.52;1.92;;;7.60;99.90;;;;;;4978428;28;20009;-86
2021/03/15 09:24:44;;;;;;;8.30;1.55;;;7.60;99.90;;;;;;4976143;28;20050;-84
2021/03/15 09:27:27;;;;;;;9.95;1.38;;;7.70;99.90;;;;;;4991227;28;20034;-84
2021/03/15 09:29:59;;;;;;;12.45;1.70;;;7.70;99.90;;;;;;4973173;28;20038;-86
2021/03/15 09:32:35;;;;;;;5.63;1.02;;;7.70;99.90;;;;;;4975989;28;20050;-85
2021/03/15 09:35:17;;;;;;;13.45;2.03;;;7.70;99.90;;;;;;4976872;28;20030;-85
2021/03/15 09:37:47;;;;;;;8.77;2.42;;;8.10;99.90;;;;;;4975410;28;20030;-84
2021/03/15 09:40:13;;;;;;;11.05;1.90;;;8.20;99.90;;;;;;4974909;28;20145;-83
2021/03/15 09:42:45;;;;;;;9.05;1.55;;;8.40;99.90;;;;;;4994337;28;20577;-83
2021/03/15 09:45:23;;;;;;;5.22;1.55;;;8.80;99.90;;;;;;4975868;28;20464;-83
2021/03/15 09:47:48;;;;;;;7.35;1.10;;;8.80;99.90;;;;;;4972843;28;20038;-83
2021/03/15 09:50:19;;;;;;;7.13;1.17;;;9.00;99.90;;;;;;4975007;28;20789;-83
2021/03/15 09:52:45;;;;;;;7.75;1.30;;;9.40;99.90;;;;;;4991812;28;20494;-85
2021/03/15 09:55:11;;;;;;;8.23;1.30;;;9.50;99.90;;;;;;4976290;28;20025;-84
2021/03/15 09:57:37;;;;;;;14.20;1.85;;;9.40;99.90;;;;;;4998205;28;20045;-82
2021/03/15 10:00:08;;;;;;;8.43;1.35;;;9.30;99.90;;;;;;4990381;28;20032;-82
2021/03/15 10:02:33;;;;;;;11.82;1.77;;;9.10;99.90;;;;;;4973516;28;20628;-83
2021/03/15 10:04:59;;;;;;;7.70;1.52;;;8.90;99.90;;;;;;4971170;28;20035;-83
2021/03/15 10:07:24;;;;;;;8.43;1.38;;;8.70;99.90;;;;;;4973840;28;20062;-84
2021/03/15 10:09:50;;;;;;;8.20;1.55;;;8.50;99.90;;;;;;4971197;28;20070;-83
2021/03/15 10:12:20;;;;;;;12.75;1.60;;;8.40;99.90;;;;;;4989509;28;20137;-83
2021/03/15 10:14:46;;;;;;;5.97;1.00;;;8.40;99.90;;;;;;4975213;28;20034;-82
2021/03/15 10:17:22;;;;;;;8.18;1.73;;;8.80;99.90;;;;;;4973804;28;20038;-83
2021/03/15 10:19:48;;;;;;;8.95;1.75;;;9.10;99.90;;;;;;4971599;28;20022;-82
2021/03/15 10:22:16;;;;;;;13.32;2.08;;;10.20;99.90;;;;;;4989973;28;20096;-83
2021/03/15 10:24:43;;;;;;;6.35;1.42;;;10.90;99.90;;;;;;4990693;28;20034;-83
2021/03/15 10:27:19;;;;;;;9.25;1.73;;;11.40;99.90;;;;;;4973379;28;20045;-83
2021/03/15 10:29:56;;;;;;;7.15;1.45;;;11.70;99.90;;;;;;4970676;28;20041;-84
2021/03/15 10:32:27;;;;;;;12.23;1.50;;;12.00;99.50;;;;;;4985801;28;20053;-85
2021/03/15 10:34:55;;;;;;;6.35;1.42;;;11.80;99.10;;;;;;4991243;28;20038;-83
2021/03/15 10:37:22;;;;;;;5.63;1.00;;;11.70;98.40;;;;;;4973659;28;20042;-83
2021/03/15 10:39:48;;;;;;;8.40;1.27;;;11.60;98.50;;;;;;4977686;28;20590;-84
2021/03/15 10:42:19;;;;;;;5.45;1.30;;;11.30;98.60;;;;;;4974762;28;20046;-82
2021/03/15 10:44:46;;;;;;;11.05;1.73;;;10.90;98.90;;;;;;4955955;28;20034;-83
2021/03/15 10:47:13;;;;;;;4.65;1.00;;;10.40;97.70;;;;;;4986228;28;20029;-83
2021/03/15 10:49:42;;;;;;;8.77;1.83;;;9.90;98.60;;;;;;4976160;28;20030;-83
2021/03/15 10:52:24;;;;;;;7.20;1.80;;;9.70;99.00;;;;;;4977049;28;20188;-83
2021/03/15 10:54:50;;;;;;;7.60;1.42;;;9.40;99.40;;;;;;4994702;28;20037;-82
2021/03/15 10:57:21;;;;;;;7.68;1.27;;;9.30;99.60;;;;;;4994835;28;20113;-82
2021/03/15 10:59:49;;;;;;;6.55;1.30;;;9.60;99.90;;;;;;4976752;28;20049;-83
2021/03/15 11:02:26;;;;;;;7.00;1.10;;;10.70;99.90;;;;;;5004982;28;20496;-84
2021/03/15 11:04:56;;;;;;;7.45;1.45;;;11.50;98.70;;;;;;4992227;28;20038;-83
2021/03/15 11:07:28;;;;;;;10.73;1.63;;;12.00;98.10;;;;;;5004252;28;20493;-83
2021/03/15 11:09:54;;;;;;;7.93;1.60;;;12.70;97.10;;;;;;4977564;28;20133;-84
2021/03/15 11:12:30;;;;;;;6.38;1.27;;;13.40;95.70;;;;;;5002857;28;20138;-84
2021/03/15 11:15:10;;;;;;;7.10;1.20;;;13.90;93.20;;;;;;4986646;28;20097;-82
2021/03/15 11:17:35;;;;;;;4.25;1.15;;;14.20;92.30;;;;;;4983935;28;20066;-84
2021/03/15 11:20:04;;;;;;;9.00;1.30;;;14.50;92.60;;;;;;4981472;28;20062;-85
2021/03/15 11:22:44;;;;;;;7.95;1.75;;;14.40;90.40;;;;;;4989529;28;20073;-86
2021/03/15 11:25:13;;;;;;;6.03;1.10;;;13.70;90.40;;;;;;4977440;28;20049;-85
2021/03/15 11:27:40;;;;;;;9.52;1.38;;;12.90;91.60;;;;;;4992397;28;20068;-88
2021/03/15 11:30:25;;;;;;;7.15;1.30;;;12.20;91.50;;;;;;4990864;28;20037;-87
2021/03/15 11:33:09;;;;;;;5.28;1.00;;;11.60;92.50;;;;;;5002661;28;20488;-88
2021/03/15 11:35:39;;;;;;;8.40;1.73;;;11.00;93.60;;;;;;4983401;28;20447;-88
2021/03/15 11:38:06;;;;;;;3.80;1.13;;;10.40;94.70;;;;;;4994494;28;20034;-88
2021/03/15 11:40:32;;;;;;;9.23;1.73;;;10.20;95.80;;;;;;4996067;28;20029;-89
2021/03/15 11:42:58;;;;;;;9.35;1.77;;;10.60;96.10;;;;;;4994412;28;20125;-87
2021/03/15 11:45:25;;;;;;;7.15;1.30;;;11.30;95.40;;;;;;4983537;28;20034;-88
2021/03/15 11:47:51;;;;;;;6.32;1.40;;;11.50;95.60;;;;;;4991523;28;20062;-86
2021/03/15 11:50:17;;;;;;;10.57;1.38;;;11.50;96.30;;;;;;4983978;28;20097;-85
2021/03/15 11:52:43;;;;;;;7.25;1.60;;;11.70;95.90;;;;;;4983067;28;20612;-87
2021/03/15 11:55:10;;;;;;;12.02;1.92;;;12.60;96.00;;;;;;4981511;28;20090;-86
2021/03/15 11:57:36;;;;;;;9.35;2.17;;;12.90;94.60;;;;;;4975638;28;20084;-86
2021/03/15 12:00:05;;;;;;;6.95;1.60;;;13.00;92.90;;;;;;4996080;28;20031;-86
2021/03/15 12:02:31;;;;;;;9.70;2.05;;;13.00;93.00;;;;;;4998955;28;20035;-86
2021/03/15 12:04:57;;;;;;;8.27;1.63;;;13.10;93.60;;;;;;4991832;28;20038;-86
2021/03/15 12:07:23;;;;;;;10.52;1.80;;;13.00;93.20;;;;;;4982556;28;20042;-84
2021/03/15 12:09:49;;;;;;;9.40;2.55;;;12.80;93.70;;;;;;4987857;28;20037;-86
2021/03/15 12:12:14;;;;;;;8.95;1.85;;;12.50;94.30;;;;;;5002455;28;20530;-87
2021/03/15 12:14:40;;;;;;;9.70;1.77;;;11.90;95.00;;;;;;4996645;28;20022;-87
2021/03/15 12:17:06;;;;;;;9.68;1.90;;;11.30;96.30;;;;;;4993288;28;20082;-86
2021/03/15 12:19:32;;;;;;;10.82;1.92;;;11.00;98.10;;;;;;4976449;28;20614;-88
2021/03/15 12:21:57;;;;;;;11.15;1.83;;;11.90;98.50;;;;;;4986650;28;20040;-86
2021/03/15 12:24:23;;;;;;;7.75;2.03;;;12.40;97.30;;;;;;5011027;28;20508;-87
2021/03/15 12:26:48;;;;;;;10.20;1.80;;;12.30;96.60;;;;;;4975639;28;20504;-84
2021/03/15 12:29:14;;;;;;;10.50;2.03;;;11.80;96.90;;;;;;4974239;28;20029;-86
2021/03/15 12:31:39;;;;;;;8.27;1.75;;;11.30;97.10;;;;;;4975801;28;20594;-88
2021/03/15 12:34:05;;;;;;;7.60;1.65;;;11.30;97.80;;;;;;4985244;28;20045;-86
2021/03/15 12:36:31;;;;;;;7.10;1.42;;;11.70;98.20;;;;;;4989801;28;20129;-88
2021/03/15 12:38:56;;;;;;;13.27;2.17;;;11.90;97.10;;;;;;4988909;28;20030;-87
2021/03/15 12:41:22;;;;;;;8.73;1.60;;;11.80;97.10;;;;;;4978275;28;20029;-87
2021/03/15 12:43:48;;;;;;;11.98;2.00;;;11.80;97.00;;;;;;4988788;28;20419;-87
2021/03/15 12:46:19;;;;;;;6.50;1.50;;;11.60;96.20;;;;;;5005291;28;20062;-86
2021/03/15 12:48:48;;;;;;;8.63;1.33;;;11.30;97.00;;;;;;4982960;28;20042;-87
2021/03/15 12:51:14;;;;;;;8.13;1.25;;;11.00;96.90;;;;;;4996859;28;21325;-84
2021/03/15 12:53:40;;;;;;;8.32;1.15;;;10.60;97.20;;;;;;4985069;28;20045;-86
2021/03/15 12:56:06;;;;;;;4.82;0.90;;;10.30;97.80;;;;;;4971970;28;20369;-84
2021/03/15 12:58:32;;;;;;;7.63;1.25;;;9.80;99.20;;;;;;4983382;28;20600;-87
2021/03/15 13:00:58;;;;;;;9.02;1.05;;;9.40;99.90;;;;;;4971615;28;20110;-85
2021/03/15 13:03:24;;;;;;;10.38;1.30;;;9.00;99.90;;;;;;4963887;28;20030;-84
2021/03/15 13:05:50;;;;;;;7.80;1.17;;;8.70;99.90;;;;;;4972630;28;20141;-90